sensor_id;sensor_type;location;lat;lon;timestamp;pressure;altitude;pressure_sealevel;temperature;humidity
34482;BME280;20720;48.886;9.388;2024-02-26T00:01:12;96520.66;;;11.68;72.04
34482;BME280;20720;48.886;9.388;2024-02-26T00:03:37;96522.13;;;11.59;71.95
34482;BME280;20720;48.886;9.388;2024-02-26T00:06:04;96520.75;;;11.78;71.37
34482;BME280;20720;48.886;9.388;2024-02-26T00:08:29;96528.63;;;11.73;71.74
34482;BME280;20720;48.886;9.388;2024-02-26T00:10:54;96534.84;;;11.94;70.88
34482;BME280;20720;48.886;9.388;2024-02-26T00:13:19;96528.78;;;12.30;69.69
34482;BME280;20720;48.886;9.388;2024-02-26T00:15:45;96538.53;;;11.66;70.99
34482;BME280;20720;48.886;9.388;2024-02-26T00:18:11;96534.13;;;12.03;69.50
34482;BME280;20720;48.886;9.388;2024-02-26T00:20:36;96530.94;;;12.01;68.66
34482;BME280;20720;48.886;9.388;2024-02-26T00:23:01;96534.59;;;12.37;68.61
34482;BME280;20720;48.886;9.388;2024-02-26T00:25:27;96528.09;;;12.50;67.25
34482;BME280;20720;48.886;9.388;2024-02-26T00:27:52;96534.59;;;12.37;67.29
34482;BME280;20720;48.886;9.388;2024-02-26T00:30:17;96534.53;;;12.27;67.19
34482;BME280;20720;48.886;9.388;2024-02-26T00:32:42;96529.81;;;12.34;66.66
34482;BME280;20720;48.886;9.388;2024-02-26T00:35:08;96544.69;;;12.13;67.40
34482;BME280;20720;48.886;9.388;2024-02-26T00:37:34;96536.53;;;12.57;64.67
34482;BME280;20720;48.886;9.388;2024-02-26T00:40:00;96531.19;;;12.88;63.90
34482;BME280;20720;48.886;9.388;2024-02-26T00:42:25;96527.75;;;12.93;62.96
34482;BME280;20720;48.886;9.388;2024-02-26T00:44:51;96531.19;;;12.98;62.79
34482;BME280;20720;48.886;9.388;2024-02-26T00:47:16;96524.47;;;12.19;66.18
34482;BME280;20720;48.886;9.388;2024-02-26T00:49:41;96517.00;;;12.43;66.16
34482;BME280;20720;48.886;9.388;2024-02-26T00:52:06;96518.44;;;12.70;64.66
34482;BME280;20720;48.886;9.388;2024-02-26T00:54:32;96531.53;;;11.02;69.77
34482;BME280;20720;48.886;9.388;2024-02-26T00:56:57;96523.88;;;12.07;65.88
34482;BME280;20720;48.886;9.388;2024-02-26T00:59:22;96517.69;;;11.33;69.02
34482;BME280;20720;48.886;9.388;2024-02-26T01:01:47;96516.00;;;12.12;66.73
34482;BME280;20720;48.886;9.388;2024-02-26T01:04:13;96521.69;;;12.36;65.27
34482;BME280;20720;48.886;9.388;2024-02-26T01:06:38;96518.72;;;12.27;64.89
34482;BME280;20720;48.886;9.388;2024-02-26T01:09:03;96516.38;;;12.30;64.63
34482;BME280;20720;48.886;9.388;2024-02-26T01:11:28;96512.75;;;12.00;65.57
34482;BME280;20720;48.886;9.388;2024-02-26T01:13:54;96517.31;;;11.24;68.59
34482;BME280;20720;48.886;9.388;2024-02-26T01:16:22;96511.25;;;11.77;66.51
34482;BME280;20720;48.886;9.388;2024-02-26T01:18:47;96518.53;;;12.39;64.75
34482;BME280;20720;48.886;9.388;2024-02-26T01:21:13;96511.34;;;11.87;65.48
34482;BME280;20720;48.886;9.388;2024-02-26T01:23:38;96517.41;;;11.88;65.65
34482;BME280;20720;48.886;9.388;2024-02-26T01:26:03;96524.97;;;12.11;64.08
34482;BME280;20720;48.886;9.388;2024-02-26T01:28:29;96523.78;;;12.34;64.30
34482;BME280;20720;48.886;9.388;2024-02-26T01:30:55;96524.19;;;12.15;64.78
34482;BME280;20720;48.886;9.388;2024-02-26T01:33:20;96524.44;;;12.14;64.64
34482;BME280;20720;48.886;9.388;2024-02-26T01:35:45;96519.75;;;11.58;67.22
34482;BME280;20720;48.886;9.388;2024-02-26T01:38:11;96526.44;;;11.65;66.24
34482;BME280;20720;48.886;9.388;2024-02-26T01:40:37;96519.97;;;12.14;65.02
34482;BME280;20720;48.886;9.388;2024-02-26T01:43:02;96520.63;;;12.32;65.16
34482;BME280;20720;48.886;9.388;2024-02-26T01:45:27;96518.84;;;11.20;66.46
34482;BME280;20720;48.886;9.388;2024-02-26T01:47:54;96516.63;;;12.24;64.81
34482;BME280;20720;48.886;9.388;2024-02-26T01:50:20;96503.88;;;11.21;68.42
34482;BME280;20720;48.886;9.388;2024-02-26T01:52:47;96525.13;;;11.68;67.29
34482;BME280;20720;48.886;9.388;2024-02-26T01:55:13;96522.44;;;10.88;69.64
34482;BME280;20720;48.886;9.388;2024-02-26T01:57:41;96510.94;;;11.69;68.46
34482;BME280;20720;48.886;9.388;2024-02-26T02:00:07;96520.47;;;12.11;64.89
34482;BME280;20720;48.886;9.388;2024-02-26T02:02:33;96513.75;;;12.30;63.67
34482;BME280;20720;48.886;9.388;2024-02-26T02:05:00;96507.56;;;12.57;62.85
34482;BME280;20720;48.886;9.388;2024-02-26T02:07:26;96517.59;;;12.60;61.62
34482;BME280;20720;48.886;9.388;2024-02-26T02:09:51;96519.63;;;12.43;62.40
34482;BME280;20720;48.886;9.388;2024-02-26T02:12:17;96524.88;;;12.38;62.78
34482;BME280;20720;48.886;9.388;2024-02-26T02:14:43;96542.59;;;12.15;63.54
34482;BME280;20720;48.886;9.388;2024-02-26T02:17:09;96543.94;;;12.13;63.75
34482;BME280;20720;48.886;9.388;2024-02-26T02:19:34;96539.13;;;12.47;63.35
34482;BME280;20720;48.886;9.388;2024-02-26T02:21:59;96553.69;;;11.86;64.27
34482;BME280;20720;48.886;9.388;2024-02-26T02:24:25;96543.22;;;12.22;62.68
34482;BME280;20720;48.886;9.388;2024-02-26T02:26:50;96548.06;;;12.41;62.50
34482;BME280;20720;48.886;9.388;2024-02-26T02:29:16;96549.72;;;12.57;62.67
34482;BME280;20720;48.886;9.388;2024-02-26T02:31:41;96552.75;;;12.85;62.02
34482;BME280;20720;48.886;9.388;2024-02-26T02:34:08;96547.41;;;12.65;62.41
34482;BME280;20720;48.886;9.388;2024-02-26T02:36:34;96557.94;;;12.23;64.72
34482;BME280;20720;48.886;9.388;2024-02-26T02:38:59;96557.50;;;12.83;62.61
34482;BME280;20720;48.886;9.388;2024-02-26T02:41:24;96554.16;;;12.98;62.36
34482;BME280;20720;48.886;9.388;2024-02-26T02:43:51;96557.16;;;12.65;62.94
34482;BME280;20720;48.886;9.388;2024-02-26T02:46:16;96559.25;;;12.63;62.86
34482;BME280;20720;48.886;9.388;2024-02-26T02:48:42;96570.47;;;12.11;64.76
34482;BME280;20720;48.886;9.388;2024-02-26T02:51:09;96563.19;;;12.18;64.93
34482;BME280;20720;48.886;9.388;2024-02-26T02:53:34;96563.00;;;11.98;65.97
34482;BME280;20720;48.886;9.388;2024-02-26T02:55:59;96561.41;;;12.76;63.12
34482;BME280;20720;48.886;9.388;2024-02-26T02:58:24;96553.13;;;12.52;63.74
34482;BME280;20720;48.886;9.388;2024-02-26T03:00:50;96569.69;;;11.79;66.99
34482;BME280;20720;48.886;9.388;2024-02-26T03:03:15;96567.72;;;11.96;66.85
34482;BME280;20720;48.886;9.388;2024-02-26T03:05:40;96561.91;;;12.26;67.74
34482;BME280;20720;48.886;9.388;2024-02-26T03:08:06;96572.47;;;12.31;66.00
34482;BME280;20720;48.886;9.388;2024-02-26T03:10:31;96574.91;;;12.06;66.37
34482;BME280;20720;48.886;9.388;2024-02-26T03:12:56;96560.50;;;12.13;67.34
34482;BME280;20720;48.886;9.388;2024-02-26T03:15:22;96575.25;;;12.51;67.96
34482;BME280;20720;48.886;9.388;2024-02-26T03:17:47;96576.91;;;11.41;72.71
34482;BME280;20720;48.886;9.388;2024-02-26T03:20:12;96581.34;;;11.62;71.19
34482;BME280;20720;48.886;9.388;2024-02-26T03:22:39;96567.41;;;12.24;73.89
34482;BME280;20720;48.886;9.388;2024-02-26T03:25:05;96582.91;;;12.16;72.73
34482;BME280;20720;48.886;9.388;2024-02-26T03:27:31;96586.47;;;12.37;72.19
34482;BME280;20720;48.886;9.388;2024-02-26T03:29:56;96585.22;;;11.32;73.58
34482;BME280;20720;48.886;9.388;2024-02-26T03:32:22;96592.03;;;11.77;73.44
34482;BME280;20720;48.886;9.388;2024-02-26T03:34:47;96596.25;;;12.09;71.37
34482;BME280;20720;48.886;9.388;2024-02-26T03:37:12;96596.31;;;12.14;69.66
34482;BME280;20720;48.886;9.388;2024-02-26T03:39:38;96584.50;;;11.37;71.47
34482;BME280;20720;48.886;9.388;2024-02-26T03:42:04;96580.91;;;12.33;71.31
34482;BME280;20720;48.886;9.388;2024-02-26T03:44:29;96572.50;;;10.21;75.66
34482;BME280;20720;48.886;9.388;2024-02-26T03:46:54;96580.41;;;10.60;76.99
34482;BME280;20720;48.886;9.388;2024-02-26T03:49:20;96571.56;;;11.84;71.89
34482;BME280;20720;48.886;9.388;2024-02-26T03:51:46;96579.44;;;11.30;71.28
34482;BME280;20720;48.886;9.388;2024-02-26T03:54:12;96570.97;;;10.64;75.83
34482;BME280;20720;48.886;9.388;2024-02-26T03:56:37;96577.22;;;11.44;74.82
34482;BME280;20720;48.886;9.388;2024-02-26T03:59:02;96578.06;;;11.71;73.46
34482;BME280;20720;48.886;9.388;2024-02-26T04:01:28;96567.78;;;11.48;75.10
34482;BME280;20720;48.886;9.388;2024-02-26T04:03:53;96565.75;;;11.07;75.71
34482;BME280;20720;48.886;9.388;2024-02-26T04:06:18;96568.28;;;10.59;79.21
34482;BME280;20720;48.886;9.388;2024-02-26T04:08:48;96554.50;;;9.80;86.81
34482;BME280;20720;48.886;9.388;2024-02-26T04:11:14;96542.72;;;9.83;90.00
34482;BME280;20720;48.886;9.388;2024-02-26T04:13:42;96541.75;;;9.72;93.80
34482;BME280;20720;48.886;9.388;2024-02-26T04:16:10;96538.03;;;10.34;92.54
34482;BME280;20720;48.886;9.388;2024-02-26T04:18:37;96533.66;;;9.57;100.00
34482;BME280;20720;48.886;9.388;2024-02-26T04:21:03;96531.19;;;10.00;100.00
34482;BME280;20720;48.886;9.388;2024-02-26T04:23:28;96536.31;;;10.45;97.93
34482;BME280;20720;48.886;9.388;2024-02-26T04:25:54;96539.78;;;10.89;93.04
34482;BME280;20720;48.886;9.388;2024-02-26T04:28:19;96550.09;;;10.35;92.90
34482;BME280;20720;48.886;9.388;2024-02-26T04:30:46;96561.78;;;10.83;96.70
34482;BME280;20720;48.886;9.388;2024-02-26T04:33:11;96561.38;;;10.53;89.47
34482;BME280;20720;48.886;9.388;2024-02-26T04:35:37;96554.13;;;11.24;95.01
34482;BME280;20720;48.886;9.388;2024-02-26T04:38:02;96549.13;;;10.80;94.23
34482;BME280;20720;48.886;9.388;2024-02-26T04:40:27;96542.25;;;10.19;97.22
34482;BME280;20720;48.886;9.388;2024-02-26T04:42:52;96545.13;;;10.01;99.89
34482;BME280;20720;48.886;9.388;2024-02-26T04:45:18;96539.66;;;10.79;98.17
34482;BME280;20720;48.886;9.388;2024-02-26T04:47:43;96538.97;;;11.10;94.82
34482;BME280;20720;48.886;9.388;2024-02-26T04:50:08;96535.59;;;10.88;96.94
34482;BME280;20720;48.886;9.388;2024-02-26T04:52:34;96537.19;;;11.37;93.17
34482;BME280;20720;48.886;9.388;2024-02-26T04:54:59;96533.84;;;11.47;92.06
34482;BME280;20720;48.886;9.388;2024-02-26T04:57:25;96529.28;;;11.37;90.98
34482;BME280;20720;48.886;9.388;2024-02-26T04:59:51;96527.88;;;10.21;97.50
34482;BME280;20720;48.886;9.388;2024-02-26T05:02:16;96525.16;;;10.16;98.15
34482;BME280;20720;48.886;9.388;2024-02-26T05:04:41;96529.66;;;10.97;92.61
34482;BME280;20720;48.886;9.388;2024-02-26T05:07:07;96519.56;;;10.68;94.61
34482;BME280;20720;48.886;9.388;2024-02-26T05:09:32;96535.22;;;11.01;97.17
34482;BME280;20720;48.886;9.388;2024-02-26T05:11:57;96509.81;;;9.75;98.75
34482;BME280;20720;48.886;9.388;2024-02-26T05:14:23;96512.00;;;11.19;91.71
34482;BME280;20720;48.886;9.388;2024-02-26T05:16:48;96521.56;;;11.04;89.28
34482;BME280;20720;48.886;9.388;2024-02-26T05:19:13;96511.38;;;9.43;99.22
34482;BME280;20720;48.886;9.388;2024-02-26T05:21:39;96516.81;;;9.86;97.52
34482;BME280;20720;48.886;9.388;2024-02-26T05:24:05;96519.91;;;10.55;93.64
34482;BME280;20720;48.886;9.388;2024-02-26T05:26:31;96520.91;;;10.92;90.41
34482;BME280;20720;48.886;9.388;2024-02-26T05:28:56;96511.72;;;10.94;96.01
34482;BME280;20720;48.886;9.388;2024-02-26T05:31:25;96510.03;;;11.05;96.30
34482;BME280;20720;48.886;9.388;2024-02-26T05:33:51;96517.22;;;11.14;94.84
34482;BME280;20720;48.886;9.388;2024-02-26T05:36:23;96529.28;;;10.89;93.39
34482;BME280;20720;48.886;9.388;2024-02-26T05:38:48;96523.56;;;11.45;89.87
34482;BME280;20720;48.886;9.388;2024-02-26T05:41:15;96527.97;;;11.13;94.17
34482;BME280;20720;48.886;9.388;2024-02-26T05:43:40;96536.22;;;11.48;89.05
34482;BME280;20720;48.886;9.388;2024-02-26T05:46:06;96534.97;;;11.02;92.19
34482;BME280;20720;48.886;9.388;2024-02-26T05:48:31;96538.56;;;11.18;88.80
34482;BME280;20720;48.886;9.388;2024-02-26T05:50:57;96549.91;;;10.59;91.69
34482;BME280;20720;48.886;9.388;2024-02-26T05:53:22;96547.91;;;11.09;90.84
34482;BME280;20720;48.886;9.388;2024-02-26T05:55:47;96556.09;;;10.91;91.23
34482;BME280;20720;48.886;9.388;2024-02-26T05:58:13;96576.94;;;11.19;89.88
34482;BME280;20720;48.886;9.388;2024-02-26T06:00:39;96589.66;;;10.84;92.55
34482;BME280;20720;48.886;9.388;2024-02-26T06:03:04;96597.94;;;10.76;93.05
34482;BME280;20720;48.886;9.388;2024-02-26T06:05:29;96602.28;;;10.87;92.92
34482;BME280;20720;48.886;9.388;2024-02-26T06:07:54;96604.00;;;11.19;90.84
34482;BME280;20720;48.886;9.388;2024-02-26T06:10:20;96608.91;;;10.34;92.49
34482;BME280;20720;48.886;9.388;2024-02-26T06:12:46;96614.56;;;11.24;89.97
34482;BME280;20720;48.886;9.388;2024-02-26T06:15:12;96599.59;;;11.47;89.96
34482;BME280;20720;48.886;9.388;2024-02-26T06:17:37;96610.00;;;10.55;91.18
34482;BME280;20720;48.886;9.388;2024-02-26T06:20:03;96622.88;;;10.57;97.50
34482;BME280;20720;48.886;9.388;2024-02-26T06:22:31;96615.97;;;10.17;99.51
34482;BME280;20720;48.886;9.388;2024-02-26T06:24:56;96595.69;;;10.46;100.00
34482;BME280;20720;48.886;9.388;2024-02-26T06:27:21;96603.88;;;9.55;100.00
34482;BME280;20720;48.886;9.388;2024-02-26T06:29:47;96603.19;;;10.76;100.00
34482;BME280;20720;48.886;9.388;2024-02-26T06:32:12;96624.13;;;10.71;100.00
34482;BME280;20720;48.886;9.388;2024-02-26T06:34:37;96640.31;;;11.01;100.00
34482;BME280;20720;48.886;9.388;2024-02-26T06:37:03;96634.31;;;10.84;100.00
34482;BME280;20720;48.886;9.388;2024-02-26T06:39:28;96629.94;;;11.32;100.00
34482;BME280;20720;48.886;9.388;2024-02-26T06:41:54;96624.91;;;11.31;100.00
34482;BME280;20720;48.886;9.388;2024-02-26T06:44:25;96626.16;;;10.30;100.00
34482;BME280;20720;48.886;9.388;2024-02-26T06:46:51;96627.59;;;10.21;100.00
34482;BME280;20720;48.886;9.388;2024-02-26T06:49:16;96622.84;;;9.90;100.00
34482;BME280;20720;48.886;9.388;2024-02-26T06:51:41;96627.66;;;11.19;100.00
34482;BME280;20720;48.886;9.388;2024-02-26T06:54:06;96617.53;;;11.55;100.00
34482;BME280;20720;48.886;9.388;2024-02-26T06:56:32;96624.91;;;11.31;100.00
34482;BME280;20720;48.886;9.388;2024-02-26T06:58:57;96628.53;;;11.47;100.00
34482;BME280;20720;48.886;9.388;2024-02-26T07:01:22;96629.41;;;11.57;100.00
34482;BME280;20720;48.886;9.388;2024-02-26T07:03:47;96640.31;;;11.44;100.00
34482;BME280;20720;48.886;9.388;2024-02-26T07:06:13;96649.31;;;11.96;100.00
34482;BME280;20720;48.886;9.388;2024-02-26T07:08:39;96654.94;;;11.78;100.00
34482;BME280;20720;48.886;9.388;2024-02-26T07:11:07;96654.56;;;11.96;100.00
34482;BME280;20720;48.886;9.388;2024-02-26T07:13:33;96663.38;;;12.07;95.49
34482;BME280;20720;48.886;9.388;2024-02-26T07:15:58;96658.41;;;12.10;97.25
34482;BME280;20720;48.886;9.388;2024-02-26T07:18:24;96665.25;;;12.11;97.01
34482;BME280;20720;48.886;9.388;2024-02-26T07:20:49;96661.16;;;12.20;95.69
34482;BME280;20720;48.886;9.388;2024-02-26T07:23:14;96664.19;;;12.39;94.58
34482;BME280;20720;48.886;9.388;2024-02-26T07:25:39;96678.72;;;11.88;96.11
34482;BME280;20720;48.886;9.388;2024-02-26T07:28:06;96673.66;;;11.82;100.00
34482;BME280;20720;48.886;9.388;2024-02-26T07:30:31;96669.59;;;12.22;100.00
34482;BME280;20720;48.886;9.388;2024-02-26T07:32:56;96668.16;;;12.42;98.55
34482;BME280;20720;48.886;9.388;2024-02-26T07:35:22;96672.78;;;12.61;97.40
34482;BME280;20720;48.886;9.388;2024-02-26T07:37:50;96674.72;;;11.21;100.00
34482;BME280;20720;48.886;9.388;2024-02-26T07:40:15;96675.34;;;11.50;100.00
34482;BME280;20720;48.886;9.388;2024-02-26T07:42:40;96679.09;;;12.28;100.00
34482;BME280;20720;48.886;9.388;2024-02-26T07:45:06;96686.03;;;12.40;98.80
34482;BME280;20720;48.886;9.388;2024-02-26T07:47:31;96688.94;;;12.70;97.88
34482;BME280;20720;48.886;9.388;2024-02-26T07:49:59;96696.69;;;12.86;94.97
34482;BME280;20720;48.886;9.388;2024-02-26T07:52:24;96690.00;;;12.74;96.08
34482;BME280;20720;48.886;9.388;2024-02-26T07:54:50;96687.47;;;12.89;98.13
34482;BME280;20720;48.886;9.388;2024-02-26T07:57:15;96688.28;;;12.89;99.68
34482;BME280;20720;48.886;9.388;2024-02-26T07:59:42;96689.44;;;12.08;100.00
34482;BME280;20720;48.886;9.388;2024-02-26T08:02:07;96681.66;;;12.50;100.00
34482;BME280;20720;48.886;9.388;2024-02-26T08:04:33;96687.53;;;12.30;100.00
34482;BME280;20720;48.886;9.388;2024-02-26T08:06:58;96697.09;;;12.10;100.00
34482;BME280;20720;48.886;9.388;2024-02-26T08:09:23;96692.78;;;12.57;100.00
34482;BME280;20720;48.886;9.388;2024-02-26T08:11:48;96694.47;;;13.05;100.00
34482;BME280;20720;48.886;9.388;2024-02-26T08:14:14;96687.72;;;13.24;98.20
34482;BME280;20720;48.886;9.388;2024-02-26T08:16:39;96695.19;;;13.00;100.00
34482;BME280;20720;48.886;9.388;2024-02-26T08:19:04;96697.38;;;11.87;100.00
34482;BME280;20720;48.886;9.388;2024-02-26T08:21:29;96688.84;;;12.60;100.00
34482;BME280;20720;48.886;9.388;2024-02-26T08:23:55;96696.41;;;12.19;100.00
34482;BME280;20720;48.886;9.388;2024-02-26T08:26:20;96715.66;;;12.52;100.00
34482;BME280;20720;48.886;9.388;2024-02-26T08:28:47;96702.91;;;13.07;97.17
34482;BME280;20720;48.886;9.388;2024-02-26T08:31:14;96707.59;;;11.83;100.00
34482;BME280;20720;48.886;9.388;2024-02-26T08:33:39;96701.16;;;10.93;100.00
34482;BME280;20720;48.886;9.388;2024-02-26T08:36:08;96699.19;;;12.08;100.00
34482;BME280;20720;48.886;9.388;2024-02-26T08:38:33;96698.47;;;12.17;100.00
34482;BME280;20720;48.886;9.388;2024-02-26T08:41:01;96700.31;;;12.17;100.00
34482;BME280;20720;48.886;9.388;2024-02-26T08:43:27;96700.66;;;12.25;100.00
34482;BME280;20720;48.886;9.388;2024-02-26T08:45:53;96697.59;;;11.80;100.00
34482;BME280;20720;48.886;9.388;2024-02-26T08:48:18;96697.06;;;11.40;100.00
34482;BME280;20720;48.886;9.388;2024-02-26T08:50:43;96693.91;;;11.81;100.00
34482;BME280;20720;48.886;9.388;2024-02-26T08:53:09;96698.47;;;11.48;100.00
34482;BME280;20720;48.886;9.388;2024-02-26T08:55:34;96694.94;;;11.80;100.00
34482;BME280;20720;48.886;9.388;2024-02-26T08:57:59;96693.22;;;12.17;100.00
34482;BME280;20720;48.886;9.388;2024-02-26T09:00:24;96700.06;;;12.82;100.00
34482;BME280;20720;48.886;9.388;2024-02-26T09:02:50;96707.34;;;13.48;100.00
34482;BME280;20720;48.886;9.388;2024-02-26T09:05:15;96708.88;;;12.61;100.00
34482;BME280;20720;48.886;9.388;2024-02-26T09:07:41;96709.09;;;12.22;100.00
34482;BME280;20720;48.886;9.388;2024-02-26T09:10:06;96704.03;;;11.51;100.00
34482;BME280;20720;48.886;9.388;2024-02-26T09:12:34;96699.84;;;12.52;100.00
34482;BME280;20720;48.886;9.388;2024-02-26T09:14:59;96698.25;;;13.19;100.00
34482;BME280;20720;48.886;9.388;2024-02-26T09:17:24;96700.63;;;12.20;100.00
34482;BME280;20720;48.886;9.388;2024-02-26T09:19:50;96696.69;;;12.86;100.00
34482;BME280;20720;48.886;9.388;2024-02-26T09:22:15;96698.00;;;13.87;100.00
34482;BME280;20720;48.886;9.388;2024-02-26T09:24:40;96697.63;;;14.31;100.00
34482;BME280;20720;48.886;9.388;2024-02-26T09:27:05;96698.56;;;13.94;100.00
34482;BME280;20720;48.886;9.388;2024-02-26T09:29:31;96700.69;;;13.97;98.71
34482;BME280;20720;48.886;9.388;2024-02-26T09:31:56;96702.63;;;13.55;93.64
34482;BME280;20720;48.886;9.388;2024-02-26T09:34:22;96709.69;;;11.81;100.00
34482;BME280;20720;48.886;9.388;2024-02-26T09:36:47;96705.91;;;11.34;100.00
34482;BME280;20720;48.886;9.388;2024-02-26T09:39:12;96705.44;;;12.28;100.00
34482;BME280;20720;48.886;9.388;2024-02-26T09:41:39;96701.31;;;12.69;95.97
34482;BME280;20720;48.886;9.388;2024-02-26T09:44:05;96704.13;;;12.94;93.15
34482;BME280;20720;48.886;9.388;2024-02-26T09:46:31;96701.13;;;13.69;90.71
34482;BME280;20720;48.886;9.388;2024-02-26T09:48:57;96713.75;;;14.79;86.08
34482;BME280;20720;48.886;9.388;2024-02-26T09:51:25;96709.78;;;14.52;92.22
34482;BME280;20720;48.886;9.388;2024-02-26T09:53:54;96705.44;;;12.92;100.00
34482;BME280;20720;48.886;9.388;2024-02-26T09:56:20;96720.13;;;12.51;100.00
34482;BME280;20720;48.886;9.388;2024-02-26T09:58:46;96716.56;;;13.41;100.00
34482;BME280;20720;48.886;9.388;2024-02-26T10:01:18;96724.19;;;12.64;100.00
34482;BME280;20720;48.886;9.388;2024-02-26T10:03:44;96719.69;;;14.04;100.00
34482;BME280;20720;48.886;9.388;2024-02-26T10:06:10;96728.00;;;15.08;93.39
34482;BME280;20720;48.886;9.388;2024-02-26T10:08:36;96733.00;;;15.20;89.38
34482;BME280;20720;48.886;9.388;2024-02-26T10:11:03;96731.72;;;14.52;88.41
34482;BME280;20720;48.886;9.388;2024-02-26T10:13:28;96735.41;;;15.42;85.95
34482;BME280;20720;48.886;9.388;2024-02-26T10:15:53;96721.94;;;14.83;80.94
34482;BME280;20720;48.886;9.388;2024-02-26T10:18:18;96724.59;;;14.68;83.00
34482;BME280;20720;48.886;9.388;2024-02-26T10:21:04;96730.63;;;15.44;81.35
34482;BME280;20720;48.886;9.388;2024-02-26T10:23:30;96724.50;;;14.23;81.40
34482;BME280;20720;48.886;9.388;2024-02-26T10:25:55;96726.19;;;14.59;85.21
34482;BME280;20720;48.886;9.388;2024-02-26T10:28:21;96730.22;;;15.80;79.86
34482;BME280;20720;48.886;9.388;2024-02-26T10:30:47;96731.97;;;15.16;81.01
34482;BME280;20720;48.886;9.388;2024-02-26T10:33:12;96736.19;;;15.32;78.01
34482;BME280;20720;48.886;9.388;2024-02-26T10:35:39;96738.28;;;15.35;78.45
34482;BME280;20720;48.886;9.388;2024-02-26T10:38:06;96736.53;;;17.16;66.76
34482;BME280;20720;48.886;9.388;2024-02-26T10:40:32;96732.63;;;17.60;66.04
34482;BME280;20720;48.886;9.388;2024-02-26T10:42:58;96726.31;;;17.56;65.65
34482;BME280;20720;48.886;9.388;2024-02-26T10:45:23;96726.28;;;16.70;66.14
34482;BME280;20720;48.886;9.388;2024-02-26T10:47:48;96719.13;;;17.80;62.25
34482;BME280;20720;48.886;9.388;2024-02-26T10:50:14;96720.38;;;19.32;59.87
34482;BME280;20720;48.886;9.388;2024-02-26T10:52:42;96727.38;;;19.55;55.83
34482;BME280;20720;48.886;9.388;2024-02-26T10:55:08;96726.81;;;19.85;54.96
34482;BME280;20720;48.886;9.388;2024-02-26T10:57:40;96729.28;;;17.97;59.19
34482;BME280;20720;48.886;9.388;2024-02-26T11:00:07;96734.19;;;18.83;59.74
34482;BME280;20720;48.886;9.388;2024-02-26T11:02:36;96740.50;;;19.51;55.45
34482;BME280;20720;48.886;9.388;2024-02-26T11:05:05;96729.38;;;19.77;55.52
34482;BME280;20720;48.886;9.388;2024-02-26T11:07:31;96729.22;;;20.36;53.79
34482;BME280;20720;48.886;9.388;2024-02-26T11:09:59;96730.13;;;20.04;52.72
34482;BME280;20720;48.886;9.388;2024-02-26T11:12:25;96729.28;;;19.22;55.40
34482;BME280;20720;48.886;9.388;2024-02-26T11:14:50;96729.59;;;16.03;65.13
34482;BME280;20720;48.886;9.388;2024-02-26T11:17:21;96733.59;;;18.54;60.35
34482;BME280;20720;48.886;9.388;2024-02-26T11:19:47;96732.69;;;17.79;60.01
34482;BME280;20720;48.886;9.388;2024-02-26T11:22:14;96739.09;;;16.92;60.26
34482;BME280;20720;48.886;9.388;2024-02-26T11:24:39;96734.94;;;18.70;57.54
34482;BME280;20720;48.886;9.388;2024-02-26T11:27:09;96741.38;;;20.15;54.97
34482;BME280;20720;48.886;9.388;2024-02-26T11:29:43;96742.25;;;21.48;50.88
34482;BME280;20720;48.886;9.388;2024-02-26T11:32:10;96734.22;;;22.18;48.27
34482;BME280;20720;48.886;9.388;2024-02-26T11:34:35;96727.88;;;21.97;48.19
34482;BME280;20720;48.886;9.388;2024-02-26T11:37:11;96725.41;;;20.50;51.21
34482;BME280;20720;48.886;9.388;2024-02-26T11:39:37;96740.19;;;20.92;50.15
34482;BME280;20720;48.886;9.388;2024-02-26T11:42:12;96726.50;;;19.87;50.20
34482;BME280;20720;48.886;9.388;2024-02-26T11:44:38;96729.44;;;20.26;49.49
34482;BME280;20720;48.886;9.388;2024-02-26T11:47:33;96730.03;;;18.40;53.59
34482;BME280;20720;48.886;9.388;2024-02-26T11:50:32;96732.13;;;19.85;51.22
34482;BME280;20720;48.886;9.388;2024-02-26T11:53:31;96752.56;;;19.62;50.42
34482;BME280;20720;48.886;9.388;2024-02-26T11:58:41;96744.91;;;18.41;53.43
34482;BME280;20720;48.886;9.388;2024-02-26T12:01:39;96746.97;;;18.49;53.52
34482;BME280;20720;48.886;9.388;2024-02-26T12:04:12;96747.25;;;18.66;52.25
34482;BME280;20720;48.886;9.388;2024-02-26T12:06:42;96743.47;;;19.50;51.52
34482;BME280;20720;48.886;9.388;2024-02-26T12:09:08;96744.13;;;19.42;51.13
34482;BME280;20720;48.886;9.388;2024-02-26T12:11:37;96747.22;;;19.76;51.14
34482;BME280;20720;48.886;9.388;2024-02-26T12:14:03;96742.69;;;20.04;49.86
34482;BME280;20720;48.886;9.388;2024-02-26T12:16:37;96745.34;;;20.17;49.18
34482;BME280;20720;48.886;9.388;2024-02-26T12:19:07;96748.41;;;19.56;50.99
34482;BME280;20720;48.886;9.388;2024-02-26T12:21:35;96745.78;;;18.92;51.37
34482;BME280;20720;48.886;9.388;2024-02-26T12:24:12;96755.25;;;17.29;56.57
34482;BME280;20720;48.886;9.388;2024-02-26T12:26:38;96761.97;;;17.45;55.97
34482;BME280;20720;48.886;9.388;2024-02-26T12:29:03;96749.50;;;17.17;56.48
34482;BME280;20720;48.886;9.388;2024-02-26T12:31:29;96743.16;;;19.51;53.14
34482;BME280;20720;48.886;9.388;2024-02-26T12:33:54;96757.00;;;20.08;51.58
34482;BME280;20720;48.886;9.388;2024-02-26T12:36:21;96750.53;;;20.85;49.95
34482;BME280;20720;48.886;9.388;2024-02-26T12:38:46;96759.25;;;17.55;54.76
34482;BME280;20720;48.886;9.388;2024-02-26T12:41:12;96756.38;;;17.75;55.59
34482;BME280;20720;48.886;9.388;2024-02-26T12:43:38;96757.81;;;19.81;53.11
34482;BME280;20720;48.886;9.388;2024-02-26T12:46:03;96765.38;;;20.42;52.52
34482;BME280;20720;48.886;9.388;2024-02-26T12:48:29;96768.44;;;18.34;57.03
34482;BME280;20720;48.886;9.388;2024-02-26T12:50:54;96770.56;;;19.38;54.15
34482;BME280;20720;48.886;9.388;2024-02-26T12:53:21;96771.03;;;19.86;52.39
34482;BME280;20720;48.886;9.388;2024-02-26T12:55:46;96773.25;;;17.32;57.39